createdAt,value
2023-03-03T00:01:43.677Z,4.80
2023-03-03T00:04:44.807Z,5.38
2023-03-03T00:07:22.347Z,5.18
2023-03-03T00:09:58.702Z,4.88
2023-03-03T00:12:29.947Z,6.40
2023-03-03T00:14:57.942Z,5.45
2023-03-03T00:17:27.275Z,4.18
2023-03-03T00:19:55.270Z,4.63
2023-03-03T00:25:28.901Z,4.13
2023-03-03T00:28:19.954Z,4.75
2023-03-03T00:30:59.366Z,6.22
2023-03-03T00:33:34.750Z,6.88
2023-03-03T00:36:36.852Z,6.82
2023-03-03T00:39:30.246Z,4.18
2023-03-03T00:42:00.750Z,5.60
2023-03-03T00:44:56.264Z,5.95
2023-03-03T00:47:23.736Z,5.25
2023-03-03T00:49:54.729Z,3.85
2023-03-03T00:52:29.223Z,5.82
2023-03-03T00:55:26.095Z,5.40
2023-03-03T00:57:53.421Z,5.15
2023-03-03T01:00:23.039Z,5.65
2023-03-03T01:02:50.699Z,4.93
2023-03-03T01:05:18.935Z,5.00
2023-03-03T01:10:54.455Z,5.47
2023-03-03T01:13:24.419Z,5.20
2023-03-03T01:15:51.698Z,5.63
2023-03-03T01:18:18.957Z,5.97
2023-03-03T01:20:50.511Z,5.95
2023-03-03T01:23:17.305Z,5.97
2023-03-03T01:25:44.814Z,6.55
2023-03-03T01:28:11.748Z,5.07
2023-03-03T01:31:07.174Z,5.95
2023-03-03T01:33:36.596Z,5.75
2023-03-03T01:36:30.792Z,5.30
2023-03-03T01:38:57.609Z,6.30
2023-03-03T01:41:33.231Z,5.22
2023-03-03T01:47:25.191Z,6.88
2023-03-03T01:50:08.852Z,6.10
2023-03-03T01:52:59.663Z,7.53
2023-03-03T01:55:47.659Z,7.60
2023-03-03T01:58:19.866Z,8.13
2023-03-03T02:01:01.189Z,6.95
2023-03-03T02:03:28.179Z,6.85
2023-03-03T02:06:02.358Z,8.43
2023-03-03T02:08:46.577Z,8.65
2023-03-03T02:11:15.102Z,6.90
2023-03-03T02:13:42.494Z,9.95
2023-03-03T02:17:00.145Z,7.32
2023-03-03T02:20:02.061Z,6.85
2023-03-03T02:22:53.871Z,7.03
2023-03-03T02:28:18.045Z,7.35
2023-03-03T02:33:40.958Z,8.45
2023-03-03T02:36:11.226Z,8.23
2023-03-03T02:38:47.995Z,7.53
2023-03-03T02:41:30.054Z,8.52
2023-03-03T02:44:32.172Z,8.90
2023-03-03T02:46:59.828Z,7.32
2023-03-03T02:49:32.952Z,8.27
2023-03-03T02:52:01.790Z,7.20
2023-03-03T02:54:37.277Z,7.10
2023-03-03T02:57:14.154Z,9.05
2023-03-03T02:59:50.519Z,8.33
2023-03-03T03:02:37.330Z,8.48
2023-03-03T03:05:04.478Z,8.43
2023-03-03T03:07:34.548Z,9.57
2023-03-03T03:10:02.229Z,10.35
2023-03-03T03:15:34.757Z,8.18
2023-03-03T03:18:01.736Z,9.02
2023-03-03T03:20:36.515Z,7.40
2023-03-03T03:23:07.021Z,8.93
2023-03-03T03:26:16.064Z,8.27
2023-03-03T03:28:43.278Z,6.80
2023-03-03T03:31:10.862Z,8.00
2023-03-03T03:33:56.236Z,7.40
2023-03-03T03:37:28.916Z,10.68
2023-03-03T03:39:59.520Z,9.73
2023-03-03T03:42:29.486Z,9.60
2023-03-03T03:44:56.228Z,8.30
2023-03-03T03:47:30.122Z,9.43
2023-03-03T03:49:57.874Z,8.45
2023-03-03T03:52:24.686Z,9.38
2023-03-03T03:54:52.293Z,9.48
2023-03-03T03:57:19.213Z,10.05
2023-03-03T03:59:51.638Z,8.57
2023-03-03T04:02:18.714Z,8.43
2023-03-03T04:04:46.883Z,8.17
2023-03-03T04:07:14.249Z,7.07
2023-03-03T04:09:41.167Z,8.65
2023-03-03T04:12:17.967Z,8.68
2023-03-03T04:14:45.563Z,8.27
2023-03-03T04:17:25.048Z,6.95
2023-03-03T04:19:53.989Z,8.15
2023-03-03T04:22:26.866Z,9.18
2023-03-03T04:24:55.015Z,6.95
2023-03-03T04:27:21.776Z,7.95
2023-03-03T04:29:54.481Z,8.75
2023-03-03T04:32:21.379Z,8.25
2023-03-03T04:35:05.617Z,8.65
2023-03-03T04:37:35.582Z,8.10
2023-03-03T04:40:03.121Z,7.63
2023-03-03T04:42:30.232Z,7.57
2023-03-03T04:45:06.719Z,7.38
2023-03-03T04:47:38.825Z,7.15
2023-03-03T04:50:12.891Z,7.25
2023-03-03T04:53:42.327Z,7.18
2023-03-03T04:56:15.068Z,7.90
2023-03-03T04:59:46.825Z,7.60
2023-03-03T05:02:58.856Z,6.57
2023-03-03T05:05:27.301Z,7.43
2023-03-03T05:07:55.190Z,7.50
2023-03-03T05:10:34.994Z,7.72
2023-03-03T05:13:02.880Z,7.30
2023-03-03T05:15:30.268Z,7.32
2023-03-03T05:18:04.320Z,7.57
2023-03-03T05:20:32.432Z,7.60
2023-03-03T05:23:26.657Z,9.43
2023-03-03T05:25:56.121Z,7.20
2023-03-03T05:28:23.705Z,6.57
2023-03-03T05:31:01.565Z,6.55
2023-03-03T05:33:34.245Z,7.38
2023-03-03T05:36:11.165Z,7.53
2023-03-03T05:39:44.998Z,7.00
2023-03-03T05:41:56.503Z,6.97
2023-03-03T05:44:23.287Z,8.55
2023-03-03T05:49:43.052Z,8.35
2023-03-03T05:52:10.044Z,8.05
2023-03-03T05:54:40.276Z,7.63
2023-03-03T05:57:20.850Z,7.22
2023-03-03T06:00:01.616Z,7.95
2023-03-03T06:02:38.624Z,6.50
2023-03-03T06:08:08.080Z,7.30
2023-03-03T06:10:44.404Z,7.65
2023-03-03T06:13:17.552Z,6.03
2023-03-03T06:15:48.533Z,6.15
2023-03-03T06:18:18.728Z,6.65
2023-03-03T06:20:50.289Z,7.45
2023-03-03T06:23:17.524Z,8.30
2023-03-03T06:25:44.650Z,6.72
2023-03-03T06:28:15.259Z,6.82
2023-03-03T06:30:42.072Z,6.13
2023-03-03T06:33:09.022Z,5.75
2023-03-03T06:38:44.419Z,5.63
2023-03-03T06:41:11.506Z,6.13
2023-03-03T06:43:39.262Z,6.10
2023-03-03T06:46:09.876Z,5.45
2023-03-03T06:48:37.031Z,5.45
2023-03-03T06:51:22.943Z,5.17
2023-03-03T06:53:55.954Z,6.55
2023-03-03T06:56:26.652Z,5.18
2023-03-03T06:59:02.899Z,5.80
2023-03-03T07:01:38.191Z,4.75
2023-03-03T07:07:01.083Z,4.95
2023-03-03T07:09:29.956Z,6.55
2023-03-03T07:12:11.194Z,5.35
2023-03-03T07:14:58.064Z,5.45
2023-03-03T07:17:29.114Z,4.70
2023-03-03T07:19:56.960Z,6.38
2023-03-03T07:22:30.368Z,7.78
2023-03-03T07:25:19.019Z,5.18
2023-03-03T07:27:46.092Z,3.90
2023-03-03T07:30:30.145Z,5.27
2023-03-03T07:32:59.660Z,4.97
2023-03-03T07:35:41.477Z,4.03
2023-03-03T07:38:28.842Z,6.28
2023-03-03T07:43:30.926Z,5.57
2023-03-03T07:46:04.253Z,6.15
2023-03-03T07:48:37.233Z,6.38
2023-03-03T07:51:13.962Z,5.68
2023-03-03T07:53:49.170Z,6.60
2023-03-03T07:56:29.946Z,6.45
2023-03-03T07:59:16.976Z,5.18
2023-03-03T08:01:50.453Z,6.53
2023-03-03T08:04:37.934Z,6.18
2023-03-03T08:07:19.030Z,7.30
2023-03-03T08:09:48.863Z,5.80
2023-03-03T08:12:20.459Z,6.50
2023-03-03T08:15:00.728Z,5.35
2023-03-03T08:17:56.246Z,4.57
2023-03-03T08:23:44.974Z,5.70
2023-03-03T08:26:17.337Z,5.53
2023-03-03T08:31:42.192Z,5.77
2023-03-03T08:34:22.312Z,5.43
2023-03-03T08:36:50.376Z,4.60
2023-03-03T08:39:24.225Z,4.80
2023-03-03T08:41:51.679Z,5.80
2023-03-03T08:44:23.582Z,5.72
2023-03-03T08:46:51.028Z,4.38
2023-03-03T08:49:18.438Z,4.78
2023-03-03T08:51:46.614Z,4.50
2023-03-03T08:54:13.774Z,5.82
2023-03-03T08:56:40.988Z,4.57
2023-03-03T08:59:08.202Z,4.90
2023-03-03T09:01:35.427Z,5.28
2023-03-03T09:04:02.474Z,5.13
2023-03-03T09:06:29.630Z,4.93
2023-03-03T09:08:56.426Z,4.37
2023-03-03T09:11:28.867Z,4.90
2023-03-03T09:14:07.637Z,5.25
2023-03-03T09:16:39.868Z,5.55
2023-03-03T09:19:37.615Z,3.58
2023-03-03T09:22:22.478Z,4.05
2023-03-03T09:25:32.639Z,5.00
2023-03-03T09:31:02.136Z,4.82
2023-03-03T09:33:43.588Z,4.13
2023-03-03T09:36:39.733Z,4.85
2023-03-03T09:39:23.500Z,4.43
2023-03-03T09:42:05.646Z,4.45
2023-03-03T09:45:23.225Z,4.40
2023-03-03T09:48:13.015Z,5.75
2023-03-03T09:50:48.873Z,6.70
2023-03-03T09:53:53.031Z,4.38
2023-03-03T09:56:59.843Z,4.53
2023-03-03T10:00:16.428Z,4.50
2023-03-03T10:03:04.893Z,5.53
2023-03-03T10:05:54.954Z,5.10
2023-03-03T10:08:43.129Z,4.03
2023-03-03T10:11:34.970Z,3.33
2023-03-03T10:14:37.935Z,3.60
2023-03-03T10:20:13.916Z,4.30
2023-03-03T10:23:24.567Z,4.60
2023-03-03T10:26:10.068Z,4.22
2023-03-03T10:28:43.400Z,5.38
2023-03-03T10:31:38.472Z,4.85
2023-03-03T10:34:18.105Z,3.92
2023-03-03T10:37:20.784Z,4.97
2023-03-03T10:39:57.677Z,4.13
2023-03-03T10:42:53.716Z,4.53
2023-03-03T10:45:56.174Z,4.35
2023-03-03T10:48:59.049Z,4.15
2023-03-03T10:52:16.824Z,4.47
2023-03-03T10:58:42.561Z,3.70
2023-03-03T11:01:27.363Z,3.95
2023-03-03T11:04:43.820Z,6.50
2023-03-03T11:07:48.464Z,4.10
2023-03-03T11:10:18.972Z,5.25
2023-03-03T11:13:06.268Z,3.58
2023-03-03T11:15:56.464Z,4.22
2023-03-03T11:19:00.664Z,4.65
2023-03-03T11:22:09.634Z,4.50
2023-03-03T11:25:18.294Z,4.00
2023-03-03T11:27:54.270Z,3.92
2023-03-03T11:31:08.049Z,4.65
2023-03-03T11:33:59.432Z,4.25
2023-03-03T11:36:58.606Z,5.30
2023-03-03T11:39:28.187Z,6.10
2023-03-03T11:42:46.659Z,5.47
2023-03-03T11:45:27.554Z,4.28
2023-03-03T11:48:17.804Z,4.85
2023-03-03T11:54:39.853Z,5.30
2023-03-03T11:58:13.583Z,4.28
2023-03-03T12:01:26.596Z,5.10
2023-03-03T12:04:35.300Z,4.57
2023-03-03T12:07:40.434Z,4.70
2023-03-03T12:11:02.254Z,5.30
2023-03-03T12:14:33.842Z,4.05
2023-03-03T12:17:22.974Z,5.50
2023-03-03T12:20:43.356Z,5.00
2023-03-03T12:27:16.411Z,5.82
2023-03-03T12:30:05.370Z,4.95
2023-03-03T12:33:00.629Z,4.95
2023-03-03T12:35:50.949Z,5.03
2023-03-03T12:38:46.270Z,4.97
2023-03-03T12:41:43.515Z,5.45
2023-03-03T12:44:21.598Z,4.70
2023-03-03T12:47:33.971Z,4.40
2023-03-03T12:50:10.372Z,4.43
2023-03-03T12:52:51.105Z,4.55
2023-03-03T12:55:50.674Z,5.75
2023-03-03T12:59:21.738Z,4.47
2023-03-03T13:02:39.909Z,3.67
2023-03-03T13:05:22.238Z,5.22
2023-03-03T13:08:42.940Z,5.25
2023-03-03T13:11:36.118Z,4.43
2023-03-03T13:14:41.215Z,7.93
2023-03-03T13:20:32.286Z,4.93
2023-03-03T13:23:36.765Z,5.00
2023-03-03T13:26:23.001Z,4.90
2023-03-03T13:29:05.509Z,4.38
2023-03-03T13:32:10.444Z,5.68
2023-03-03T13:35:20.103Z,6.55
2023-03-03T13:37:56.565Z,6.60
2023-03-03T13:40:31.598Z,5.53
2023-03-03T13:46:05.563Z,5.47
2023-03-03T13:49:22.140Z,6.70
2023-03-03T13:52:01.952Z,6.80
2023-03-03T13:55:13.588Z,6.57
2023-03-03T13:58:24.699Z,6.68
2023-03-03T14:01:18.295Z,6.75
2023-03-03T14:04:00.640Z,5.45
2023-03-03T14:06:29.547Z,6.22
2023-03-03T14:09:15.741Z,5.82
2023-03-03T14:12:12.073Z,6.57
2023-03-03T14:15:25.633Z,4.63
2023-03-03T14:21:19.543Z,4.95
2023-03-03T14:24:16.043Z,4.45
2023-03-03T14:26:57.894Z,3.80
2023-03-03T14:30:01.104Z,4.43
2023-03-03T14:32:44.512Z,3.80
2023-03-03T14:35:29.356Z,4.10
2023-03-03T14:38:19.785Z,5.65
2023-03-03T14:40:49.623Z,4.95
2023-03-03T14:44:09.877Z,4.93
2023-03-03T14:47:02.580Z,3.70
2023-03-03T14:49:39.418Z,4.05
2023-03-03T14:52:21.182Z,5.18
2023-03-03T14:55:11.988Z,8.07
2023-03-03T14:57:48.160Z,5.55
2023-03-03T15:00:25.155Z,4.53
2023-03-03T15:03:16.034Z,5.30
2023-03-03T15:05:59.625Z,5.30
2023-03-03T15:08:38.279Z,5.45
2023-03-03T15:12:03.219Z,4.60
2023-03-03T15:18:51.215Z,5.53
2023-03-03T15:22:01.069Z,5.80
2023-03-03T15:25:11.020Z,4.07
2023-03-03T15:28:28.621Z,4.63
2023-03-03T15:32:13.088Z,5.10
2023-03-03T15:35:08.361Z,4.10
2023-03-03T15:38:30.631Z,3.85
2023-03-03T15:41:29.283Z,4.53
2023-03-03T15:44:27.019Z,5.28
2023-03-03T15:47:18.227Z,5.90
2023-03-03T15:50:13.048Z,6.50
2023-03-03T15:56:26.644Z,4.93
2023-03-03T15:59:27.688Z,5.63
2023-03-03T16:02:25.669Z,6.68
2023-03-03T16:05:20.034Z,6.70
2023-03-03T16:09:30.067Z,5.47
2023-03-03T16:12:19.819Z,4.57
2023-03-03T16:16:18.302Z,5.40
2023-03-03T16:21:47.484Z,6.00
2023-03-03T16:24:44.955Z,5.32
2023-03-03T16:27:25.658Z,4.90
2023-03-03T16:30:15.899Z,4.55
2023-03-03T16:33:01.939Z,4.65
2023-03-03T16:35:39.683Z,6.03
2023-03-03T16:40:59.725Z,4.20
2023-03-03T16:43:46.036Z,4.38
2023-03-03T16:46:45.247Z,4.20
2023-03-03T16:49:48.421Z,5.10
2023-03-03T16:52:30.593Z,7.18
2023-03-03T16:55:11.842Z,7.22
2023-03-03T16:58:17.763Z,5.45
2023-03-03T17:01:16.955Z,5.63
2023-03-03T17:04:06.331Z,5.63
2023-03-03T17:10:28.124Z,5.53
2023-03-03T17:13:35.940Z,4.25
2023-03-03T17:16:16.561Z,6.47
2023-03-03T17:19:40.464Z,5.60
2023-03-03T17:22:35.039Z,6.55
2023-03-03T17:26:23.596Z,5.45
2023-03-03T17:32:31.179Z,4.60
2023-03-03T17:35:40.568Z,4.93
2023-03-03T17:45:19.797Z,4.80
2023-03-03T17:48:20.869Z,4.63
2023-03-03T17:51:21.672Z,5.22
2023-03-03T17:54:04.513Z,4.68
2023-03-03T17:56:58.016Z,5.75
2023-03-03T17:59:59.757Z,5.07
2023-03-03T18:03:07.799Z,6.65
2023-03-03T18:05:57.789Z,4.95
2023-03-03T18:16:42.126Z,5.07
2023-03-03T18:22:53.748Z,4.68
2023-03-03T18:30:39.145Z,4.53
2023-03-03T18:33:27.097Z,4.82
2023-03-03T18:36:25.180Z,4.60
2023-03-03T18:39:21.395Z,5.82
2023-03-03T18:42:19.005Z,5.22
2023-03-03T18:47:18.788Z,5.18
2023-03-03T18:50:15.489Z,5.25
2023-03-03T18:53:19.228Z,4.47
2023-03-03T18:58:43.562Z,5.47
2023-03-03T19:02:01.313Z,7.32
2023-03-03T19:04:42.351Z,8.57
2023-03-03T19:07:34.343Z,6.93
2023-03-03T19:10:11.526Z,7.10
2023-03-03T19:16:01.737Z,5.88
2023-03-03T19:48:44.694Z,4.60
2023-03-03T19:51:47.873Z,4.40
2023-03-03T19:54:40.644Z,5.32
2023-03-03T19:57:37.416Z,6.72
2023-03-03T20:04:32.634Z,4.38
2023-03-03T20:07:06.249Z,6.05
2023-03-03T20:10:12.200Z,5.38
2023-03-03T20:13:41.156Z,5.22
2023-03-03T20:16:31.108Z,4.95
2023-03-03T20:19:31.747Z,5.15
2023-03-03T20:22:24.601Z,5.20
2023-03-03T20:25:20.981Z,5.20
2023-03-03T20:28:28.686Z,5.50
2023-03-03T20:34:48.103Z,5.25
2023-03-03T20:37:50.299Z,4.10
2023-03-03T20:40:39.552Z,5.35
2023-03-03T20:43:41.254Z,4.35
2023-03-03T20:47:00.376Z,5.38
2023-03-03T20:50:18.031Z,4.10
2023-03-03T20:53:08.995Z,4.60
2023-03-03T20:56:05.279Z,4.55
2023-03-03T20:58:57.961Z,4.20
2023-03-03T21:02:00.128Z,4.38
2023-03-03T21:05:21.790Z,4.20
2023-03-03T21:08:10.253Z,4.35
2023-03-03T21:10:51.700Z,5.18
2023-03-03T21:13:57.144Z,4.72
2023-03-03T21:19:25.340Z,4.10
2023-03-03T21:22:18.692Z,4.47
2023-03-03T21:25:04.568Z,3.63
2023-03-03T21:27:39.638Z,3.83
2023-03-03T21:30:41.035Z,4.40
2023-03-03T21:33:07.941Z,3.63
2023-03-03T21:36:52.348Z,4.88
2023-03-03T21:47:00.083Z,4.45
2023-03-03T21:49:35.744Z,3.67
2023-03-03T21:52:03.477Z,4.90
2023-03-03T21:54:59.648Z,4.25
2023-03-03T21:57:30.088Z,4.35
2023-03-03T22:00:00.770Z,5.15
2023-03-03T22:02:58.706Z,3.92
2023-03-03T22:05:29.628Z,5.05
2023-03-03T22:08:14.644Z,4.60
2023-03-03T22:11:03.127Z,5.35
2023-03-03T23:25:16.166Z,4.55
2023-03-03T23:30:29.124Z,5.25
2023-03-03T23:32:55.967Z,5.40
2023-03-03T23:35:22.786Z,4.78
2023-03-03T23:37:52.613Z,6.47
2023-03-03T23:40:19.489Z,5.75
2023-03-03T23:42:46.603Z,4.97
2023-03-03T23:45:14.383Z,5.15
2023-03-03T23:47:41.707Z,5.38
2023-03-03T23:50:10.973Z,4.80
2023-03-03T23:52:37.795Z,4.75
2023-03-03T23:55:05.337Z,5.95
2023-03-03T23:57:32.244Z,5.85
2023-03-03T23:59:59.130Z,6.38
